Time;durP1;ratioP1;P1;durP2;ratioP2;P2;SDS_P1;SDS_P2;PMS_P1;PMS_P2;Temp;Humidity;BMP_temperature;BMP_pressure;BME280_temperature;BME280_humidity;BME280_pressure;Samples;Min_cycle;Max_cycle;Signal;HPM_P1;HPM_P2
2021/07/14 18:47:36;;;;;;;1.60;1.50;;;18.10;99.90;;;;;;5515621;23;20496;-74
2021/07/14 18:50:03;;;;;;;1.60;1.43;;;18.10;99.90;;;;;;4967584;28;20473;-74
2021/07/14 18:52:29;;;;;;;1.50;1.40;;;18.20;99.90;;;;;;4940211;29;20450;-75
2021/07/14 18:54:55;;;;;;;1.30;1.20;;;18.10;99.90;;;;;;4940398;29;20472;-74
2021/07/14 18:57:20;;;;;;;1.23;1.13;;;18.00;99.90;;;;;;4959028;29;20452;-74
2021/07/14 18:59:46;;;;;;;1.57;1.47;;;17.90;99.90;;;;;;4957817;28;20946;-75
2021/07/14 19:02:12;;;;;;;1.27;1.17;;;17.90;99.90;;;;;;4959880;28;20214;-78
2021/07/14 19:04:37;;;;;;;1.47;1.37;;;17.90;99.90;;;;;;4958158;28;20184;-74
2021/07/14 19:07:03;;;;;;;1.13;0.90;;;17.90;99.90;;;;;;4957700;28;20177;-76
2021/07/14 19:09:29;;;;;;;1.33;1.20;;;17.90;99.90;;;;;;4966926;28;20753;-75
2021/07/14 19:11:54;;;;;;;1.57;1.27;;;17.90;99.90;;;;;;4944316;28;20206;-75
2021/07/14 19:14:20;;;;;;;1.20;1.10;;;17.80;99.90;;;;;;4946316;28;20241;-75
2021/07/14 19:16:47;;;;;;;1.30;1.20;;;17.70;99.90;;;;;;4946365;28;20173;-76
2021/07/14 19:19:12;;;;;;;1.90;1.30;;;17.70;99.90;;;;;;4971764;28;20231;-76
2021/07/14 19:21:38;;;;;;;2.27;1.70;;;17.70;99.90;;;;;;4978197;28;20420;-75
2021/07/14 19:24:07;;;;;;;1.97;1.40;;;17.70;99.90;;;;;;4976146;28;20207;-76
2021/07/14 19:26:33;;;;;;;1.67;1.50;;;17.70;99.90;;;;;;4977984;28;20161;-75
2021/07/14 19:28:58;;;;;;;1.90;1.50;;;17.80;99.90;;;;;;4976126;28;20591;-75
2021/07/14 19:31:24;;;;;;;1.70;1.60;;;17.80;99.90;;;;;;4975739;28;20196;-76
2021/07/14 19:33:50;;;;;;;1.77;1.67;;;17.90;99.90;;;;;;4974771;28;20192;-75
2021/07/14 19:36:18;;;;;;;2.53;1.50;;;17.90;99.90;;;;;;4977105;28;20752;-77
2021/07/14 19:38:45;;;;;;;1.90;1.80;;;18.00;99.90;;;;;;4957920;28;20795;-75
2021/07/14 19:41:15;;;;;;;2.40;1.70;;;18.10;99.90;;;;;;4957749;28;20910;-76
2021/07/14 19:43:47;;;;;;;1.70;1.60;;;18.10;99.90;;;;;;4968648;28;20464;-75
2021/07/14 19:46:12;;;;;;;2.20;2.10;;;18.20;99.90;;;;;;4975944;28;20746;-76
2021/07/14 19:48:40;;;;;;;1.90;1.70;;;18.10;99.90;;;;;;4975100;28;20540;-76
2021/07/14 19:51:07;;;;;;;2.00;1.87;;;18.10;99.90;;;;;;4977685;28;20276;-76
2021/07/14 19:53:35;;;;;;;2.77;1.90;;;18.20;99.90;;;;;;4976479;28;20412;-76
2021/07/14 19:56:01;;;;;;;1.60;1.50;;;18.20;99.90;;;;;;4975976;28;20846;-76
2021/07/14 19:58:26;;;;;;;2.60;1.70;;;18.20;99.90;;;;;;4975879;28;20464;-77
2021/07/14 20:00:52;;;;;;;2.00;1.90;;;18.20;99.90;;;;;;4975233;28;20184;-76
2021/07/14 20:03:17;;;;;;;2.77;2.57;;;18.20;99.90;;;;;;4977158;28;20177;-76
2021/07/14 20:05:43;;;;;;;1.97;1.80;;;18.10;99.90;;;;;;4977009;28;20239;-76
2021/07/14 20:08:09;;;;;;;1.80;1.70;;;18.00;99.90;;;;;;4975665;28;20650;-74
2021/07/14 20:10:34;;;;;;;2.87;1.97;;;17.90;99.90;;;;;;4976419;28;20205;-75
2021/07/14 20:13:00;;;;;;;2.37;2.17;;;17.80;99.90;;;;;;4975677;28;20568;-76
2021/07/14 20:15:31;;;;;;;1.93;1.83;;;17.80;99.90;;;;;;4977141;28;20180;-77
2021/07/14 20:17:56;;;;;;;2.53;2.33;;;17.80;99.90;;;;;;4975106;28;20204;-75
2021/07/14 20:20:23;;;;;;;2.07;1.97;;;17.70;99.90;;;;;;4975694;28;20412;-76
2021/07/14 20:22:49;;;;;;;2.40;2.20;;;17.80;99.90;;;;;;4976282;28;20181;-74
2021/07/14 20:25:15;;;;;;;2.50;2.00;;;17.80;99.90;;;;;;4975689;28;20427;-75
2021/07/14 20:27:43;;;;;;;2.33;2.13;;;17.80;99.90;;;;;;4977342;28;20866;-77
2021/07/14 20:30:11;;;;;;;2.33;2.20;;;17.80;99.90;;;;;;4977990;28;20666;-76
2021/07/14 20:32:40;;;;;;;1.80;1.70;;;17.80;99.90;;;;;;4977397;28;20491;-77
2021/07/14 20:35:05;;;;;;;1.83;1.70;;;17.90;99.90;;;;;;4976169;28;20422;-76
2021/07/14 20:37:31;;;;;;;1.70;1.60;;;17.90;99.90;;;;;;4975527;28;20527;-76
2021/07/14 20:39:57;;;;;;;1.83;1.73;;;17.90;99.90;;;;;;4976710;28;20200;-76
2021/07/14 20:42:22;;;;;;;2.03;1.93;;;17.90;99.90;;;;;;4977294;28;20180;-76
2021/07/14 20:44:48;;;;;;;1.80;1.70;;;18.00;99.90;;;;;;4975911;28;20220;-73
2021/07/14 20:47:16;;;;;;;2.23;1.90;;;17.90;99.90;;;;;;4975493;28;20231;-73
2021/07/14 20:49:42;;;;;;;1.70;1.60;;;18.00;99.90;;;;;;4965560;28;20239;-74
2021/07/14 20:52:08;;;;;;;2.33;2.13;;;18.10;99.90;;;;;;4955983;28;20417;-72
2021/07/14 20:54:34;;;;;;;1.77;1.67;;;18.10;99.90;;;;;;4955678;28;20428;-73
2021/07/14 20:56:59;;;;;;;1.77;1.67;;;18.10;99.90;;;;;;4955282;28;20172;-72
2021/07/14 20:59:25;;;;;;;1.83;1.73;;;18.20;99.90;;;;;;4955453;28;20433;-73
2021/07/14 21:01:50;;;;;;;2.10;2.00;;;18.30;99.90;;;;;;4955833;28;20181;-75
2021/07/14 21:04:16;;;;;;;1.90;1.80;;;18.30;99.90;;;;;;4956551;28;20623;-74
2021/07/14 21:06:42;;;;;;;1.60;1.50;;;18.40;99.90;;;;;;4954638;28;20206;-74
2021/07/14 21:09:15;;;;;;;2.20;2.10;;;18.40;99.90;;;;;;4956872;28;20222;-76
2021/07/14 21:11:41;;;;;;;2.30;1.90;;;18.40;99.90;;;;;;4958226;29;20268;-76
2021/07/14 21:14:07;;;;;;;2.40;2.30;;;18.40;99.90;;;;;;4966054;29;20414;-76
2021/07/14 21:16:36;;;;;;;3.10;2.90;;;18.40;99.90;;;;;;4939869;28;20201;-75
2021/07/14 21:19:02;;;;;;;2.20;2.10;;;18.50;99.90;;;;;;4943668;29;20300;-76
2021/07/14 21:21:28;;;;;;;6.73;2.10;;;18.50;99.90;;;;;;4949704;29;20473;-76
2021/07/14 21:23:54;;;;;;;2.20;2.10;;;18.50;99.90;;;;;;4942957;28;20448;-76
2021/07/14 21:26:20;;;;;;;2.00;1.90;;;18.50;99.90;;;;;;4955510;28;20439;-76
2021/07/14 21:28:46;;;;;;;1.87;1.77;;;18.40;99.90;;;;;;4946539;28;20617;-75
2021/07/14 21:31:13;;;;;;;2.30;1.97;;;18.40;99.90;;;;;;4966722;28;20201;-75
2021/07/14 21:33:39;;;;;;;3.07;1.60;;;18.30;99.90;;;;;;4960984;28;20409;-75
2021/07/14 21:36:04;;;;;;;1.33;1.33;;;18.40;99.90;;;;;;4960531;28;20427;-76
2021/07/14 21:38:30;;;;;;;1.67;1.40;;;18.40;99.90;;;;;;4967541;28;20257;-76
2021/07/14 21:40:55;;;;;;;1.60;1.50;;;18.30;99.90;;;;;;4952700;28;20194;-79
2021/07/14 21:43:21;;;;;;;1.30;1.27;;;18.30;99.90;;;;;;4958239;28;20261;-76
2021/07/14 21:45:48;;;;;;;1.50;1.40;;;18.30;99.90;;;;;;4958634;28;20181;-76
2021/07/14 21:48:14;;;;;;;2.30;1.50;;;18.30;99.90;;;;;;4964651;28;20210;-76
2021/07/14 21:50:40;;;;;;;1.60;1.50;;;18.30;99.90;;;;;;4950689;28;20488;-77
2021/07/14 21:53:07;;;;;;;1.70;1.60;;;18.30;99.90;;;;;;4950056;28;20516;-76
2021/07/14 21:55:34;;;;;;;1.70;1.60;;;18.30;99.90;;;;;;4946171;28;20430;-77
2021/07/14 21:57:59;;;;;;;1.57;1.47;;;18.30;99.90;;;;;;4953773;28;20435;-77
2021/07/14 22:00:34;;;;;;;3.00;1.90;;;18.20;99.90;;;;;;4955877;28;20413;-77
2021/07/14 22:03:01;;;;;;;2.40;1.70;;;18.10;99.90;;;;;;4969645;28;20177;-77
2021/07/14 22:05:28;;;;;;;2.20;2.00;;;18.10;99.90;;;;;;4979706;28;20413;-78
2021/07/14 22:07:56;;;;;;;1.83;1.70;;;18.10;99.90;;;;;;4976513;28;20440;-77
2021/07/14 22:10:28;;;;;;;1.50;1.40;;;18.10;99.90;;;;;;4978076;28;20481;-77
2021/07/14 22:12:54;;;;;;;3.27;1.77;;;18.10;99.90;;;;;;4972630;28;20413;-76
2021/07/14 22:15:20;;;;;;;3.50;1.70;;;18.10;99.90;;;;;;4967859;29;20468;-77
2021/07/14 22:17:47;;;;;;;2.37;2.27;;;18.00;99.90;;;;;;4974862;28;20175;-78
2021/07/14 22:20:16;;;;;;;1.73;1.63;;;17.90;99.90;;;;;;4973634;28;20513;-77
2021/07/14 22:22:58;;;;;;;1.73;1.63;;;17.80;99.90;;;;;;4961066;28;20477;-78
2021/07/14 22:25:28;;;;;;;1.93;1.30;;;17.80;99.90;;;;;;4951801;28;20456;-77
2021/07/14 22:27:54;;;;;;;1.87;1.77;;;17.70;99.90;;;;;;4956586;29;20421;-77
2021/07/14 22:30:22;;;;;;;2.73;2.43;;;17.70;99.90;;;;;;4955553;28;20477;-77
2021/07/14 22:32:48;;;;;;;2.30;2.10;;;17.70;99.90;;;;;;4952196;28;20432;-76
2021/07/14 22:35:17;;;;;;;2.60;2.40;;;17.60;99.90;;;;;;4946283;29;20447;-77
2021/07/14 22:37:44;;;;;;;2.10;2.00;;;17.50;99.90;;;;;;4942685;28;20520;-77
2021/07/14 22:40:12;;;;;;;2.90;2.70;;;17.50;99.90;;;;;;4949325;28;20475;-77
2021/07/14 22:42:42;;;;;;;4.50;2.77;;;17.50;99.90;;;;;;4942285;29;20523;-76
2021/07/14 22:45:08;;;;;;;2.10;2.00;;;17.40;99.90;;;;;;4952205;28;20435;-76
2021/07/14 22:47:36;;;;;;;2.50;2.30;;;17.30;99.90;;;;;;4950990;28;20441;-77
2021/07/14 22:50:04;;;;;;;2.50;2.30;;;17.10;99.90;;;;;;4949525;28;20485;-77
2021/07/14 22:52:30;;;;;;;2.57;2.37;;;17.00;99.90;;;;;;4947628;28;20484;-77
2021/07/14 22:54:55;;;;;;;2.30;2.10;;;17.00;99.90;;;;;;4948397;29;20429;-77
2021/07/14 22:57:21;;;;;;;3.07;2.80;;;17.00;99.90;;;;;;4954466;28;20650;-77
2021/07/14 22:59:46;;;;;;;2.90;2.67;;;17.00;99.90;;;;;;4954200;28;20213;-76
2021/07/14 23:02:12;;;;;;;2.83;2.63;;;17.00;99.90;;;;;;4952699;28;20209;-77
2021/07/14 23:04:38;;;;;;;2.87;2.67;;;16.90;99.90;;;;;;4944776;28;20257;-77
2021/07/14 23:07:03;;;;;;;3.13;2.93;;;16.90;99.90;;;;;;4944281;29;20190;-77
2021/07/14 23:09:29;;;;;;;2.77;2.60;;;17.00;99.90;;;;;;4941525;29;20228;-75
2021/07/14 23:11:54;;;;;;;3.77;3.47;;;17.00;99.90;;;;;;4944555;29;20272;-76
2021/07/14 23:14:20;;;;;;;3.30;3.00;;;17.00;99.90;;;;;;4954385;28;20547;-75
2021/07/14 23:16:45;;;;;;;3.57;3.20;;;16.90;99.90;;;;;;4949492;28;20193;-76
2021/07/14 23:19:11;;;;;;;3.00;2.80;;;16.90;99.90;;;;;;4954552;28;20296;-76
2021/07/14 23:21:37;;;;;;;3.20;2.63;;;16.80;99.90;;;;;;4953653;28;20645;-77
2021/07/14 23:24:03;;;;;;;3.20;3.00;;;16.80;99.90;;;;;;4953891;28;20196;-76
2021/07/14 23:26:28;;;;;;;3.60;3.30;;;16.90;99.90;;;;;;4945287;28;20453;-76
2021/07/14 23:28:54;;;;;;;3.40;3.20;;;16.90;99.90;;;;;;4945592;28;20214;-75
2021/07/14 23:31:20;;;;;;;4.20;3.90;;;16.90;99.90;;;;;;4938639;29;20194;-76
2021/07/14 23:33:45;;;;;;;3.97;3.57;;;16.90;99.90;;;;;;4944061;29;20430;-76
2021/07/14 23:36:11;;;;;;;4.10;3.80;;;16.80;99.90;;;;;;4954016;28;20200;-76
2021/07/14 23:38:36;;;;;;;5.30;4.23;;;16.80;99.90;;;;;;4954270;28;20562;-76
2021/07/14 23:41:02;;;;;;;4.50;4.10;;;16.70;99.90;;;;;;4944974;29;20181;-76
2021/07/14 23:43:28;;;;;;;7.43;4.63;;;16.60;99.90;;;;;;4953080;28;20181;-76
2021/07/14 23:45:54;;;;;;;4.70;4.30;;;16.60;99.90;;;;;;4949445;28;20958;-76
2021/07/14 23:48:19;;;;;;;6.33;5.40;;;16.60;99.90;;;;;;4950302;28;20213;-76
2021/07/14 23:50:45;;;;;;;5.10;4.70;;;16.50;99.90;;;;;;4950368;28;20241;-76
2021/07/14 23:53:11;;;;;;;4.83;4.53;;;16.50;99.90;;;;;;4948558;28;20277;-76
2021/07/14 23:55:37;;;;;;;6.10;5.50;;;16.50;99.90;;;;;;4943968;28;20210;-76
2021/07/14 23:58:04;;;;;;;5.07;4.47;;;16.50;99.90;;;;;;4950871;29;20214;-76
